sensor_id;sensor_type;location;lat;lon;timestamp;temperature;humidity
44707;DHT22;30433;45.596;8.408;2024-01-30T00:01:31;-0.30;99.90
44707;DHT22;30433;45.596;8.408;2024-01-30T00:07:33;-0.60;99.90
44707;DHT22;30433;45.596;8.408;2024-01-30T00:13:37;-0.40;99.90
44707;DHT22;30433;45.596;8.408;2024-01-30T00:19:39;-0.30;99.90
44707;DHT22;30433;45.596;8.408;2024-01-30T00:25:41;-0.30;99.90
44707;DHT22;30433;45.596;8.408;2024-01-30T00:31:44;-0.20;99.90
44707;DHT22;30433;45.596;8.408;2024-01-30T00:37:46;-0.30;99.90
44707;DHT22;30433;45.596;8.408;2024-01-30T00:43:48;-0.30;99.90
44707;DHT22;30433;45.596;8.408;2024-01-30T00:49:52;-0.40;99.90
44707;DHT22;30433;45.596;8.408;2024-01-30T00:55:54;-0.60;99.90
44707;DHT22;30433;45.596;8.408;2024-01-30T01:01:56;-0.30;99.90
44707;DHT22;30433;45.596;8.408;2024-01-30T01:08:00;-0.40;99.90
44707;DHT22;30433;45.596;8.408;2024-01-30T01:14:01;-0.40;99.90
44707;DHT22;30433;45.596;8.408;2024-01-30T01:20:04;-0.40;99.90
44707;DHT22;30433;45.596;8.408;2024-01-30T01:26:09;-0.20;99.90
44707;DHT22;30433;45.596;8.408;2024-01-30T01:32:11;-0.30;99.90
44707;DHT22;30433;45.596;8.408;2024-01-30T01:38:13;-0.40;99.90
44707;DHT22;30433;45.596;8.408;2024-01-30T01:44:17;-0.20;99.90
44707;DHT22;30433;45.596;8.408;2024-01-30T01:50:20;-0.30;99.90
44707;DHT22;30433;45.596;8.408;2024-01-30T01:56:23;-0.20;99.90
44707;DHT22;30433;45.596;8.408;2024-01-30T02:02:30;-0.10;99.90
44707;DHT22;30433;45.596;8.408;2024-01-30T02:08:32;0.20;99.90
44707;DHT22;30433;45.596;8.408;2024-01-30T02:14:44;0.30;99.90
44707;DHT22;30433;45.596;8.408;2024-01-30T02:20:48;0.50;99.90
44707;DHT22;30433;45.596;8.408;2024-01-30T02:26:52;0.50;99.90
44707;DHT22;30433;45.596;8.408;2024-01-30T02:32:54;0.30;99.90
44707;DHT22;30433;45.596;8.408;2024-01-30T02:38:56;0.40;99.90
44707;DHT22;30433;45.596;8.408;2024-01-30T02:44:59;0.40;99.90
44707;DHT22;30433;45.596;8.408;2024-01-30T02:51:01;0.60;99.90
44707;DHT22;30433;45.596;8.408;2024-01-30T02:57:04;0.40;99.90
44707;DHT22;30433;45.596;8.408;2024-01-30T03:03:08;0.60;99.90
44707;DHT22;30433;45.596;8.408;2024-01-30T03:09:10;0.50;99.90
44707;DHT22;30433;45.596;8.408;2024-01-30T03:15:12;0.60;99.90
44707;DHT22;30433;45.596;8.408;2024-01-30T03:21:15;0.70;99.90
44707;DHT22;30433;45.596;8.408;2024-01-30T03:27:17;0.70;99.90
44707;DHT22;30433;45.596;8.408;2024-01-30T03:33:20;0.60;99.90
44707;DHT22;30433;45.596;8.408;2024-01-30T03:39:23;0.50;99.90
44707;DHT22;30433;45.596;8.408;2024-01-30T03:45:25;0.60;99.90
44707;DHT22;30433;45.596;8.408;2024-01-30T03:51:27;0.30;99.90
44707;DHT22;30433;45.596;8.408;2024-01-30T03:57:31;0.20;99.90
44707;DHT22;30433;45.596;8.408;2024-01-30T04:03:33;0.30;99.90
44707;DHT22;30433;45.596;8.408;2024-01-30T04:09:36;0.20;99.90
44707;DHT22;30433;45.596;8.408;2024-01-30T04:15:39;-0.40;99.90
44707;DHT22;30433;45.596;8.408;2024-01-30T04:21:41;0.00;99.90
44707;DHT22;30433;45.596;8.408;2024-01-30T04:27:43;0.10;99.90
44707;DHT22;30433;45.596;8.408;2024-01-30T04:33:47;0.00;99.90
44707;DHT22;30433;45.596;8.408;2024-01-30T04:39:49;-0.20;99.90
44707;DHT22;30433;45.596;8.408;2024-01-30T04:45:51;-0.10;99.90
44707;DHT22;30433;45.596;8.408;2024-01-30T04:51:54;-0.50;99.90
44707;DHT22;30433;45.596;8.408;2024-01-30T04:57:57;-0.50;99.90
44707;DHT22;30433;45.596;8.408;2024-01-30T05:03:59;-0.20;99.90
44707;DHT22;30433;45.596;8.408;2024-01-30T05:10:03;-0.20;99.90
44707;DHT22;30433;45.596;8.408;2024-01-30T05:16:06;-0.20;99.90
44707;DHT22;30433;45.596;8.408;2024-01-30T05:22:08;-0.40;99.90
44707;DHT22;30433;45.596;8.408;2024-01-30T05:28:11;-0.10;99.90
44707;DHT22;30433;45.596;8.408;2024-01-30T05:34:14;0.10;99.90
44707;DHT22;30433;45.596;8.408;2024-01-30T05:40:16;0.10;99.90
44707;DHT22;30433;45.596;8.408;2024-01-30T05:46:20;-0.40;99.90
44707;DHT22;30433;45.596;8.408;2024-01-30T05:52:22;-0.40;99.90
44707;DHT22;30433;45.596;8.408;2024-01-30T05:58:24;-0.80;99.90
44707;DHT22;30433;45.596;8.408;2024-01-30T06:04:28;-0.60;99.90
44707;DHT22;30433;45.596;8.408;2024-01-30T06:10:30;-0.50;99.90
44707;DHT22;30433;45.596;8.408;2024-01-30T06:16:32;-0.50;99.90
44707;DHT22;30433;45.596;8.408;2024-01-30T06:22:35;-0.50;99.90
44707;DHT22;30433;45.596;8.408;2024-01-30T06:28:37;-0.70;99.90
44707;DHT22;30433;45.596;8.408;2024-01-30T06:34:41;-0.80;99.90
44707;DHT22;30433;45.596;8.408;2024-01-30T06:40:46;-0.80;99.90
44707;DHT22;30433;45.596;8.408;2024-01-30T06:46:48;-0.60;99.90
44707;DHT22;30433;45.596;8.408;2024-01-30T06:52:50;-0.60;99.90
44707;DHT22;30433;45.596;8.408;2024-01-30T06:58:54;-0.50;99.90
44707;DHT22;30433;45.596;8.408;2024-01-30T07:04:56;-0.40;99.90
44707;DHT22;30433;45.596;8.408;2024-01-30T07:10:58;-0.40;99.90
44707;DHT22;30433;45.596;8.408;2024-01-30T07:17:02;-0.60;99.90
44707;DHT22;30433;45.596;8.408;2024-01-30T07:23:05;-0.30;99.90
44707;DHT22;30433;45.596;8.408;2024-01-30T07:29:07;-0.10;99.90
44707;DHT22;30433;45.596;8.408;2024-01-30T07:35:10;0.00;99.90
44707;DHT22;30433;45.596;8.408;2024-01-30T07:41:13;0.30;99.90
44707;DHT22;30433;45.596;8.408;2024-01-30T07:47:15;0.30;99.90
44707;DHT22;30433;45.596;8.408;2024-01-30T07:53:19;0.60;99.90
44707;DHT22;30433;45.596;8.408;2024-01-30T07:59:20;1.00;99.90
44707;DHT22;30433;45.596;8.408;2024-01-30T08:05:25;1.30;99.90
44707;DHT22;30433;45.596;8.408;2024-01-30T08:11:29;1.30;99.90
44707;DHT22;30433;45.596;8.408;2024-01-30T08:17:32;1.60;99.90
44707;DHT22;30433;45.596;8.408;2024-01-30T08:23:34;1.80;99.90
44707;DHT22;30433;45.596;8.408;2024-01-30T08:29:40;2.00;99.90
44707;DHT22;30433;45.596;8.408;2024-01-30T08:35:50;2.20;99.90
44707;DHT22;30433;45.596;8.408;2024-01-30T08:41:53;2.50;99.90
44707;DHT22;30433;45.596;8.408;2024-01-30T08:47:59;2.60;99.90
44707;DHT22;30433;45.596;8.408;2024-01-30T08:54:02;2.80;99.90
44707;DHT22;30433;45.596;8.408;2024-01-30T09:00:05;3.00;99.90
44707;DHT22;30433;45.596;8.408;2024-01-30T09:06:11;3.30;99.90
44707;DHT22;30433;45.596;8.408;2024-01-30T09:12:13;3.70;99.90
44707;DHT22;30433;45.596;8.408;2024-01-30T09:18:15;3.90;99.90
44707;DHT22;30433;45.596;8.408;2024-01-30T09:24:22;4.00;99.90
44707;DHT22;30433;45.596;8.408;2024-01-30T09:30:24;4.30;99.90
44707;DHT22;30433;45.596;8.408;2024-01-30T09:36:27;4.50;99.90
44707;DHT22;30433;45.596;8.408;2024-01-30T09:42:33;4.70;99.90
44707;DHT22;30433;45.596;8.408;2024-01-30T09:48:37;4.80;99.90
44707;DHT22;30433;45.596;8.408;2024-01-30T09:54:39;5.30;99.90
44707;DHT22;30433;45.596;8.408;2024-01-30T10:00:43;5.50;99.90
44707;DHT22;30433;45.596;8.408;2024-01-30T10:06:46;5.90;99.90
44707;DHT22;30433;45.596;8.408;2024-01-30T10:12:51;6.00;99.90
44707;DHT22;30433;45.596;8.408;2024-01-30T10:18:55;6.10;99.90
44707;DHT22;30433;45.596;8.408;2024-01-30T10:25:00;6.10;99.90
44707;DHT22;30433;45.596;8.408;2024-01-30T10:31:17;6.20;99.90
44707;DHT22;30433;45.596;8.408;2024-01-30T10:37:25;6.30;99.90
44707;DHT22;30433;45.596;8.408;2024-01-30T10:43:31;6.30;99.90
44707;DHT22;30433;45.596;8.408;2024-01-30T10:49:35;6.60;99.90
44707;DHT22;30433;45.596;8.408;2024-01-30T10:55:39;6.70;99.90
44707;DHT22;30433;45.596;8.408;2024-01-30T11:01:43;6.70;99.90
44707;DHT22;30433;45.596;8.408;2024-01-30T11:07:45;7.00;99.90
44707;DHT22;30433;45.596;8.408;2024-01-30T11:13:50;7.10;99.90
44707;DHT22;30433;45.596;8.408;2024-01-30T11:19:52;7.50;99.90
44707;DHT22;30433;45.596;8.408;2024-01-30T11:25:55;7.60;99.70
44707;DHT22;30433;45.596;8.408;2024-01-30T11:31:59;7.70;99.90
44707;DHT22;30433;45.596;8.408;2024-01-30T11:38:01;7.80;99.90
44707;DHT22;30433;45.596;8.408;2024-01-30T11:44:04;7.70;99.20
44707;DHT22;30433;45.596;8.408;2024-01-30T11:50:07;7.90;99.10
44707;DHT22;30433;45.596;8.408;2024-01-30T11:56:12;8.00;98.70
44707;DHT22;30433;45.596;8.408;2024-01-30T12:02:16;8.30;98.60
44707;DHT22;30433;45.596;8.408;2024-01-30T12:08:20;8.50;98.50
44707;DHT22;30433;45.596;8.408;2024-01-30T12:14:22;8.60;97.70
44707;DHT22;30433;45.596;8.408;2024-01-30T12:20:25;8.80;97.40
44707;DHT22;30433;45.596;8.408;2024-01-30T12:26:29;8.80;97.50
44707;DHT22;30433;45.596;8.408;2024-01-30T12:32:31;9.00;97.10
44707;DHT22;30433;45.596;8.408;2024-01-30T12:38:33;9.10;97.50
44707;DHT22;30433;45.596;8.408;2024-01-30T12:44:37;9.30;97.00
44707;DHT22;30433;45.596;8.408;2024-01-30T12:50:39;8.90;97.00
44707;DHT22;30433;45.596;8.408;2024-01-30T12:56:41;8.80;97.50
44707;DHT22;30433;45.596;8.408;2024-01-30T13:02:45;8.80;97.40
44707;DHT22;30433;45.596;8.408;2024-01-30T13:08:47;9.10;97.60
44707;DHT22;30433;45.596;8.408;2024-01-30T13:14:50;9.20;97.90
44707;DHT22;30433;45.596;8.408;2024-01-30T13:20:56;9.00;96.80
44707;DHT22;30433;45.596;8.408;2024-01-30T13:26:58;8.90;97.10
44707;DHT22;30433;45.596;8.408;2024-01-30T13:33:04;9.00;97.80
44707;DHT22;30433;45.596;8.408;2024-01-30T13:39:11;9.10;96.50
44707;DHT22;30433;45.596;8.408;2024-01-30T13:45:13;9.50;97.20
44707;DHT22;30433;45.596;8.408;2024-01-30T13:51:16;9.00;96.40
44707;DHT22;30433;45.596;8.408;2024-01-30T13:57:22;9.30;97.10
44707;DHT22;30433;45.596;8.408;2024-01-30T14:03:25;9.60;96.60
44707;DHT22;30433;45.596;8.408;2024-01-30T14:09:28;9.70;96.50
44707;DHT22;30433;45.596;8.408;2024-01-30T14:15:34;9.70;96.80
44707;DHT22;30433;45.596;8.408;2024-01-30T14:21:36;9.70;96.60
44707;DHT22;30433;45.596;8.408;2024-01-30T14:27:39;10.00;96.40
44707;DHT22;30433;45.596;8.408;2024-01-30T14:33:42;9.90;96.30
44707;DHT22;30433;45.596;8.408;2024-01-30T14:39:44;9.90;95.60
44707;DHT22;30433;45.596;8.408;2024-01-30T14:45:46;9.70;95.10
44707;DHT22;30433;45.596;8.408;2024-01-30T14:51:51;9.50;95.50
44707;DHT22;30433;45.596;8.408;2024-01-30T14:57:53;9.40;95.90
44707;DHT22;30433;45.596;8.408;2024-01-30T15:03:56;9.10;96.50
44707;DHT22;30433;45.596;8.408;2024-01-30T15:10:04;9.00;97.30
44707;DHT22;30433;45.596;8.408;2024-01-30T15:16:15;9.00;97.40
44707;DHT22;30433;45.596;8.408;2024-01-30T15:22:25;8.90;98.50
44707;DHT22;30433;45.596;8.408;2024-01-30T15:28:40;8.80;98.30
44707;DHT22;30433;45.596;8.408;2024-01-30T15:34:50;8.60;99.20
44707;DHT22;30433;45.596;8.408;2024-01-30T15:40:52;8.50;99.20
44707;DHT22;30433;45.596;8.408;2024-01-30T15:46:56;8.20;99.90
44707;DHT22;30433;45.596;8.408;2024-01-30T15:53:03;8.20;99.90
44707;DHT22;30433;45.596;8.408;2024-01-30T15:59:08;8.00;99.90
44707;DHT22;30433;45.596;8.408;2024-01-30T16:05:25;8.00;99.90
44707;DHT22;30433;45.596;8.408;2024-01-30T16:11:30;7.90;99.90
44707;DHT22;30433;45.596;8.408;2024-01-30T16:17:36;7.70;99.90
44707;DHT22;30433;45.596;8.408;2024-01-30T16:23:41;7.40;99.90
44707;DHT22;30433;45.596;8.408;2024-01-30T16:30:01;7.30;99.90
44707;DHT22;30433;45.596;8.408;2024-01-30T16:36:06;7.10;99.90
44707;DHT22;30433;45.596;8.408;2024-01-30T16:42:10;7.00;99.90
44707;DHT22;30433;45.596;8.408;2024-01-30T16:48:13;6.90;99.90
44707;DHT22;30433;45.596;8.408;2024-01-30T16:54:18;6.80;99.90
44707;DHT22;30433;45.596;8.408;2024-01-30T17:00:22;6.30;99.90
44707;DHT22;30433;45.596;8.408;2024-01-30T17:06:25;6.30;99.90
44707;DHT22;30433;45.596;8.408;2024-01-30T17:12:27;6.10;99.90
44707;DHT22;30433;45.596;8.408;2024-01-30T17:18:33;6.10;99.90
44707;DHT22;30433;45.596;8.408;2024-01-30T17:24:36;5.90;99.90
44707;DHT22;30433;45.596;8.408;2024-01-30T17:30:38;6.10;99.90
44707;DHT22;30433;45.596;8.408;2024-01-30T17:36:42;5.70;99.90
44707;DHT22;30433;45.596;8.408;2024-01-30T17:42:44;5.50;99.90
44707;DHT22;30433;45.596;8.408;2024-01-30T17:48:47;5.20;99.90
44707;DHT22;30433;45.596;8.408;2024-01-30T17:54:51;5.20;99.90
44707;DHT22;30433;45.596;8.408;2024-01-30T18:00:54;5.00;99.90
44707;DHT22;30433;45.596;8.408;2024-01-30T18:06:58;5.20;99.90
44707;DHT22;30433;45.596;8.408;2024-01-30T18:13:01;5.10;99.90
44707;DHT22;30433;45.596;8.408;2024-01-30T18:19:05;4.80;99.90
44707;DHT22;30433;45.596;8.408;2024-01-30T18:25:08;5.00;99.90
44707;DHT22;30433;45.596;8.408;2024-01-30T18:31:12;4.80;99.90
44707;DHT22;30433;45.596;8.408;2024-01-30T18:37:14;4.90;99.90
44707;DHT22;30433;45.596;8.408;2024-01-30T18:43:17;4.90;99.90
44707;DHT22;30433;45.596;8.408;2024-01-30T18:49:22;4.60;99.90
44707;DHT22;30433;45.596;8.408;2024-01-30T18:55:24;3.80;99.90
44707;DHT22;30433;45.596;8.408;2024-01-30T19:01:26;4.00;99.90
44707;DHT22;30433;45.596;8.408;2024-01-30T19:07:30;4.50;99.90
44707;DHT22;30433;45.596;8.408;2024-01-30T19:13:32;4.50;99.90
44707;DHT22;30433;45.596;8.408;2024-01-30T19:19:34;4.50;99.90
44707;DHT22;30433;45.596;8.408;2024-01-30T19:25:38;4.20;99.90
44707;DHT22;30433;45.596;8.408;2024-01-30T19:31:40;4.30;99.90
44707;DHT22;30433;45.596;8.408;2024-01-30T19:37:42;4.20;99.90
44707;DHT22;30433;45.596;8.408;2024-01-30T19:43:46;3.90;99.90
44707;DHT22;30433;45.596;8.408;2024-01-30T19:49:48;3.90;99.90
44707;DHT22;30433;45.596;8.408;2024-01-30T19:55:50;3.90;99.90
44707;DHT22;30433;45.596;8.408;2024-01-30T20:01:54;3.60;99.90
44707;DHT22;30433;45.596;8.408;2024-01-30T20:07:56;3.50;99.90
44707;DHT22;30433;45.596;8.408;2024-01-30T20:13:59;3.50;99.90
44707;DHT22;30433;45.596;8.408;2024-01-30T20:20:03;3.50;99.90
44707;DHT22;30433;45.596;8.408;2024-01-30T20:26:06;3.30;99.90
44707;DHT22;30433;45.596;8.408;2024-01-30T20:32:08;3.10;99.90
44707;DHT22;30433;45.596;8.408;2024-01-30T20:38:12;3.40;99.90
44707;DHT22;30433;45.596;8.408;2024-01-30T20:44:14;2.90;99.90
44707;DHT22;30433;45.596;8.408;2024-01-30T20:50:18;2.70;99.90
44707;DHT22;30433;45.596;8.408;2024-01-30T20:56:22;2.90;99.90
44707;DHT22;30433;45.596;8.408;2024-01-30T21:02:24;2.40;99.90
44707;DHT22;30433;45.596;8.408;2024-01-30T21:08:26;2.30;99.90
44707;DHT22;30433;45.596;8.408;2024-01-30T21:14:30;2.50;99.90
44707;DHT22;30433;45.596;8.408;2024-01-30T21:20:32;2.60;99.90
44707;DHT22;30433;45.596;8.408;2024-01-30T21:26:34;2.40;99.90
44707;DHT22;30433;45.596;8.408;2024-01-30T21:32:37;2.50;99.90
44707;DHT22;30433;45.596;8.408;2024-01-30T21:38:40;2.00;99.90
44707;DHT22;30433;45.596;8.408;2024-01-30T21:44:42;2.10;99.90
44707;DHT22;30433;45.596;8.408;2024-01-30T21:50:46;2.00;99.90
44707;DHT22;30433;45.596;8.408;2024-01-30T21:56:48;2.10;99.90
44707;DHT22;30433;45.596;8.408;2024-01-30T22:02:50;2.10;99.90
44707;DHT22;30433;45.596;8.408;2024-01-30T22:08:54;1.90;99.90
44707;DHT22;30433;45.596;8.408;2024-01-30T22:14:56;1.60;99.90
44707;DHT22;30433;45.596;8.408;2024-01-30T22:20:58;1.70;99.90
44707;DHT22;30433;45.596;8.408;2024-01-30T22:27:02;1.90;99.90
44707;DHT22;30433;45.596;8.408;2024-01-30T22:33:04;1.80;99.90
44707;DHT22;30433;45.596;8.408;2024-01-30T22:39:09;1.50;99.90
44707;DHT22;30433;45.596;8.408;2024-01-30T22:45:12;1.60;99.90
44707;DHT22;30433;45.596;8.408;2024-01-30T22:51:14;1.50;99.90
44707;DHT22;30433;45.596;8.408;2024-01-30T22:57:16;1.60;99.90
44707;DHT22;30433;45.596;8.408;2024-01-30T23:03:20;1.60;99.90
44707;DHT22;30433;45.596;8.408;2024-01-30T23:09:22;1.30;99.90
44707;DHT22;30433;45.596;8.408;2024-01-30T23:15:24;1.40;99.90
44707;DHT22;30433;45.596;8.408;2024-01-30T23:21:27;1.20;99.90
44707;DHT22;30433;45.596;8.408;2024-01-30T23:27:30;1.10;99.90
44707;DHT22;30433;45.596;8.408;2024-01-30T23:33:32;1.10;99.90
44707;DHT22;30433;45.596;8.408;2024-01-30T23:39:35;0.80;99.90
44707;DHT22;30433;45.596;8.408;2024-01-30T23:45:37;0.90;99.90
44707;DHT22;30433;45.596;8.408;2024-01-30T23:51:39;0.90;99.90
44707;DHT22;30433;45.596;8.408;2024-01-30T23:57:43;1.00;99.90
